Terminal Aerodrome Forecast
Issued by NWS Wakefield, VA

Home | Current Version | Previous Version | Text Only | Print | Product List | Glossary On
Versions: 1 2 3 4 5 6 7 8 9 10 11 12 13 14 15 16 17 18 19 20
000
FTUS41 KAKQ 031700
TAFRIC
TAF
KRIC 031736Z 0318/0418 18006KT P6SM OVC035
     FM032200 19009KT 5SM -SHRA BKN012 OVC025
     FM040400 21012KT 4SM -SHRA OVC005
     FM041500 24013G20KT P6SM VCSH BKN010 BKN025 OVC050=

USA.gov is the U.S. government's official web portal to all federal, state and local government web resources and services.